Time;durP1;ratioP1;P1;durP2;ratioP2;P2;SDS_P1;SDS_P2;PMS_P1;PMS_P2;Temp;Humidity;BMP_temperature;BMP_pressure;BME280_temperature;BME280_humidity;BME280_pressure;Samples;Min_cycle;Max_cycle;Signal;HPM_P1;HPM_P2
2023/01/05 00:00:07;;;;;;;1.80;0.70;;;11.80;73.50;;;;;;5114725;28;20434;-66
2023/01/05 00:02:34;;;;;;;1.60;0.60;;;11.70;73.80;;;;;;5114890;28;20792;-66
2023/01/05 00:05:01;;;;;;;2.47;0.80;;;11.60;74.20;;;;;;5114934;28;20434;-65
2023/01/05 00:07:28;;;;;;;1.70;0.70;;;11.70;74.70;;;;;;5115990;28;20544;-66
2023/01/05 00:09:55;;;;;;;1.50;0.57;;;11.70;74.80;;;;;;5115946;28;20434;-66
2023/01/05 00:23:23;;;;;;;1.80;0.90;;;11.50;76.50;;;;;;5095557;28;20829;-66
2023/01/05 00:25:50;;;;;;;2.47;0.57;;;11.40;75.90;;;;;;5096089;28;20435;-66
2023/01/05 00:28:19;;;;;;;1.50;0.60;;;11.50;76.00;;;;;;5115983;28;20475;-66
2023/01/05 00:30:47;;;;;;;1.60;0.60;;;11.50;75.90;;;;;;5115935;28;20769;-66
2023/01/05 00:33:16;;;;;;;1.70;0.70;;;11.50;76.30;;;;;;5114965;28;20438;-66
2023/01/05 00:35:44;;;;;;;2.55;0.75;;;11.50;77.40;;;;;;5115374;28;20224;-66
2023/01/05 00:38:11;;;;;;;1.60;0.50;;;11.50;78.30;;;;;;5115255;28;20191;-66
2023/01/05 00:40:38;;;;;;;1.80;0.60;;;11.40;79.60;;;;;;5115696;28;20484;-66
2023/01/05 00:43:06;;;;;;;1.57;0.60;;;11.40;79.80;;;;;;5115263;28;20442;-66
2023/01/05 00:45:34;;;;;;;1.60;0.80;;;11.40;81.10;;;;;;5115507;28;20449;-66
2023/01/05 00:48:01;;;;;;;1.57;0.70;;;11.40;80.70;;;;;;5115133;28;21000;-66
2023/01/05 00:50:29;;;;;;;1.63;0.77;;;11.40;80.20;;;;;;5115452;28;20847;-66
2023/01/05 00:52:56;;;;;;;1.50;0.60;;;11.40;80.40;;;;;;5114772;28;20438;-66
2023/01/05 00:55:23;;;;;;;1.60;0.70;;;11.30;80.40;;;;;;5114716;28;20185;-66
2023/01/05 00:57:50;;;;;;;1.70;0.70;;;11.30;80.10;;;;;;5113459;28;20231;-66
2023/01/05 01:00:18;;;;;;;1.70;0.60;;;11.30;80.10;;;;;;5115024;28;20277;-66
2023/01/05 01:02:47;;;;;;;1.77;0.53;;;11.30;80.00;;;;;;5114736;28;20615;-66
2023/01/05 01:05:14;;;;;;;1.60;0.60;;;11.40;79.80;;;;;;5115226;28;20438;-66
2023/01/05 01:07:41;;;;;;;1.50;0.60;;;11.40;79.70;;;;;;5114848;28;20185;-66
2023/01/05 01:10:10;;;;;;;1.50;0.50;;;11.40;79.60;;;;;;5115384;28;20200;-66
2023/01/05 01:12:37;;;;;;;1.50;0.57;;;11.40;79.60;;;;;;5115089;28;20438;-66
2023/01/05 01:15:06;;;;;;;2.70;0.90;;;11.40;79.40;;;;;;5114508;28;20242;-66
2023/01/05 01:17:33;;;;;;;1.60;0.60;;;11.40;79.20;;;;;;5115176;28;20253;-66
2023/01/05 01:20:02;;;;;;;2.60;0.77;;;11.50;79.00;;;;;;5114630;28;20181;-66
2023/01/05 01:22:29;;;;;;;2.00;0.68;;;11.40;78.80;;;;;;5114746;28;20223;-66
2023/01/05 01:24:56;;;;;;;1.80;0.68;;;11.50;78.60;;;;;;5114198;28;20195;-67
2023/01/05 01:27:23;;;;;;;1.70;0.70;;;11.50;78.70;;;;;;5114894;28;20258;-66
2023/01/05 01:29:50;;;;;;;1.83;0.77;;;11.50;78.60;;;;;;5114279;28;20439;-66
2023/01/05 01:32:17;;;;;;;1.80;0.73;;;11.50;78.40;;;;;;5114959;28;20434;-66
2023/01/05 01:34:46;;;;;;;1.70;0.80;;;11.50;78.10;;;;;;5113844;28;20481;-66
2023/01/05 01:37:15;;;;;;;1.67;0.67;;;11.50;77.70;;;;;;5114684;28;20192;-66
2023/01/05 01:39:42;;;;;;;1.60;0.50;;;11.50;77.80;;;;;;5114051;28;20434;-66
2023/01/05 01:42:13;;;;;;;1.50;0.60;;;11.60;78.80;;;;;;5114470;28;20847;-66
2023/01/05 01:44:54;;;;;;;1.50;0.60;;;11.60;77.60;;;;;;5114366;28;20508;-66
2023/01/05 01:47:29;;;;;;;1.50;0.60;;;11.60;77.90;;;;;;5114390;28;20463;-66
2023/01/05 01:49:58;;;;;;;1.87;0.60;;;11.60;78.10;;;;;;5113804;28;20195;-66
2023/01/05 01:52:29;;;;;;;1.40;0.50;;;11.60;78.50;;;;;;5114121;28;20938;-66
2023/01/05 01:54:57;;;;;;;1.60;0.60;;;11.60;78.00;;;;;;5113792;28;20785;-66
2023/01/05 01:57:27;;;;;;;1.60;0.60;;;11.60;78.30;;;;;;5113837;28;20466;-66
2023/01/05 01:59:56;;;;;;;1.40;0.50;;;11.70;77.70;;;;;;5113799;28;20483;-66
2023/01/05 02:02:24;;;;;;;1.60;0.70;;;11.70;77.30;;;;;;5113952;28;20478;-66
2023/01/05 02:04:51;;;;;;;2.00;0.60;;;11.70;77.50;;;;;;5113727;28;20521;-66
2023/01/05 02:07:18;;;;;;;1.60;0.67;;;11.70;77.10;;;;;;5113623;27;20441;-66
2023/01/05 02:09:47;;;;;;;1.60;0.70;;;11.70;76.70;;;;;;5113631;28;20495;-66
2023/01/05 02:12:29;;;;;;;1.60;0.60;;;11.80;76.30;;;;;;5114262;28;20542;-66
2023/01/05 02:15:06;;;;;;;1.50;0.57;;;11.80;75.90;;;;;;5113544;28;20440;-66
2023/01/05 02:17:43;;;;;;;1.70;0.60;;;11.90;75.90;;;;;;5114067;28;20940;-66
2023/01/05 02:20:47;;;;;;;1.50;0.50;;;11.90;75.90;;;;;;5113368;28;20500;-66
2023/01/05 02:23:59;;;;;;;1.60;0.60;;;12.00;75.40;;;;;;5113200;28;20954;-66
2023/01/05 02:27:24;;;;;;;1.50;0.60;;;12.00;75.00;;;;;;5093131;28;20516;-66
2023/01/05 02:30:22;;;;;;;1.60;0.60;;;12.00;74.90;;;;;;5018863;28;20441;-66
2023/01/05 02:32:59;;;;;;;1.77;0.87;;;12.00;75.10;;;;;;5093006;28;20477;-66
2023/01/05 02:35:33;;;;;;;1.50;0.57;;;12.00;74.90;;;;;;5105067;28;20457;-66
2023/01/05 02:38:07;;;;;;;1.60;0.50;;;12.00;74.90;;;;;;5113380;28;20473;-66
2023/01/05 02:40:39;;;;;;;1.50;0.53;;;12.00;74.80;;;;;;5113279;28;20521;-66
2023/01/05 02:43:08;;;;;;;1.50;0.50;;;12.10;74.90;;;;;;5112950;28;20469;-66
2023/01/05 02:45:36;;;;;;;1.60;0.60;;;12.10;74.60;;;;;;5113140;28;20795;-66
2023/01/05 02:48:04;;;;;;;1.57;0.60;;;12.20;74.20;;;;;;5113074;28;20459;-66
2023/01/05 02:50:36;;;;;;;1.50;0.50;;;12.20;74.20;;;;;;5113066;28;20445;-66
2023/01/05 02:53:09;;;;;;;1.50;0.50;;;12.20;74.10;;;;;;5112710;28;20446;-67
2023/01/05 02:55:45;;;;;;;1.73;0.50;;;12.20;73.70;;;;;;5092777;28;20443;-66
2023/01/05 02:58:17;;;;;;;1.50;0.60;;;12.30;73.50;;;;;;5105171;28;20796;-66
2023/01/05 03:00:49;;;;;;;1.50;0.60;;;12.30;73.70;;;;;;5092701;28;20431;-66
2023/01/05 03:03:22;;;;;;;1.50;0.50;;;12.30;73.40;;;;;;5092533;28;20500;-67
2023/01/05 03:05:54;;;;;;;2.00;0.60;;;12.30;73.00;;;;;;5112837;28;20467;-66
2023/01/05 03:08:24;;;;;;;1.50;0.50;;;12.20;72.90;;;;;;5112510;28;20491;-67
2023/01/05 03:13:50;;;;;;;1.60;0.60;;;12.30;72.80;;;;;;5095480;28;20429;-66
2023/01/05 03:16:23;;;;;;;1.47;0.50;;;12.30;72.80;;;;;;5112803;28;20438;-66
2023/01/05 03:35:37;;;;;;;1.50;0.60;;;12.20;72.60;;;;;;5111967;28;20464;-66
2023/01/05 03:38:11;;;;;;;1.50;0.60;;;12.20;72.80;;;;;;5112302;28;20533;-66
2023/01/05 03:40:39;;;;;;;1.50;0.60;;;12.20;72.70;;;;;;5112484;28;20465;-66
2023/01/05 03:43:07;;;;;;;1.90;0.60;;;12.30;72.80;;;;;;5111899;28;20481;-66
2023/01/05 03:45:39;;;;;;;1.50;0.60;;;12.30;73.20;;;;;;5112238;28;20434;-66
2023/01/05 03:48:06;;;;;;;1.87;0.80;;;12.20;73.30;;;;;;5112257;28;20490;-66
2023/01/05 03:50:36;;;;;;;1.70;0.70;;;12.20;73.50;;;;;;5112450;28;20848;-66
2023/01/05 03:53:03;;;;;;;1.50;0.60;;;12.20;73.50;;;;;;5111887;28;20460;-66
2023/01/05 03:55:30;;;;;;;2.27;0.60;;;12.10;73.10;;;;;;5112123;28;20464;-66
2023/01/05 03:57:57;;;;;;;1.97;0.50;;;12.10;73.50;;;;;;5111828;28;20434;-66
2023/01/05 04:00:25;;;;;;;2.23;0.60;;;12.10;73.60;;;;;;5109950;28;20510;-66
2023/01/05 04:02:52;;;;;;;1.43;0.50;;;12.10;73.50;;;;;;5112195;28;20835;-66
2023/01/05 04:05:19;;;;;;;1.60;0.60;;;12.00;73.50;;;;;;5112423;28;20434;-66
2023/01/05 04:07:47;;;;;;;2.27;0.67;;;12.00;73.70;;;;;;5111862;28;20848;-66
2023/01/05 04:10:15;;;;;;;2.17;0.60;;;12.00;73.80;;;;;;5112512;28;20446;-66
2023/01/05 04:12:42;;;;;;;1.50;0.50;;;11.90;74.10;;;;;;5112297;28;20931;-66
2023/01/05 04:15:11;;;;;;;2.03;0.60;;;11.90;74.50;;;;;;5112707;28;20460;-66
2023/01/05 04:17:38;;;;;;;1.60;0.70;;;11.90;75.00;;;;;;5112065;28;20810;-66
2023/01/05 04:20:06;;;;;;;1.50;0.50;;;11.90;74.90;;;;;;5112202;28;20434;-66
2023/01/05 04:22:33;;;;;;;1.50;0.70;;;11.90;75.50;;;;;;5112241;28;20259;-65
2023/01/05 04:25:02;;;;;;;1.70;0.60;;;11.90;75.60;;;;;;5111892;28;20503;-66
2023/01/05 04:27:29;;;;;;;1.50;0.50;;;11.90;76.20;;;;;;5112321;28;20465;-65
2023/01/05 04:29:56;;;;;;;1.57;0.60;;;11.90;76.70;;;;;;5111709;28;20430;-66
2023/01/05 04:32:23;;;;;;;1.70;0.80;;;11.90;76.90;;;;;;5114087;28;20773;-66
2023/01/05 04:34:50;;;;;;;1.90;0.70;;;11.90;77.10;;;;;;5115499;28;20445;-66
2023/01/05 04:37:17;;;;;;;1.80;0.63;;;11.80;77.80;;;;;;5115984;28;20495;-66
2023/01/05 04:39:45;;;;;;;1.70;0.60;;;11.80;78.50;;;;;;5115545;28;20526;-66
2023/01/05 04:42:13;;;;;;;1.80;0.70;;;11.70;78.70;;;;;;5115978;28;20482;-66
2023/01/05 04:44:40;;;;;;;1.70;0.60;;;11.70;78.90;;;;;;5115471;28;20490;-66
2023/01/05 04:47:07;;;;;;;4.28;0.60;;;11.70;79.30;;;;;;5116001;28;20433;-66
2023/01/05 04:49:35;;;;;;;1.60;0.60;;;11.70;79.60;;;;;;5115158;28;20188;-66
2023/01/05 04:52:02;;;;;;;2.20;0.63;;;11.70;79.70;;;;;;5115754;28;20778;-66
2023/01/05 04:54:29;;;;;;;1.90;0.70;;;11.70;80.00;;;;;;5115241;28;20430;-66
2023/01/05 04:56:56;;;;;;;1.70;0.70;;;11.60;79.80;;;;;;5115519;28;20434;-66
2023/01/05 04:59:25;;;;;;;1.52;0.55;;;11.60;80.30;;;;;;5115390;28;20438;-66
2023/01/05 05:01:52;;;;;;;1.50;0.60;;;11.50;80.60;;;;;;5114916;28;20203;-65
2023/01/05 05:04:19;;;;;;;1.50;0.50;;;11.50;80.80;;;;;;5115820;28;20184;-66
2023/01/05 05:06:46;;;;;;;1.60;0.70;;;11.50;80.90;;;;;;5115324;28;20959;-66
2023/01/05 05:09:13;;;;;;;1.98;0.90;;;11.50;81.00;;;;;;5115647;27;20588;-66
2023/01/05 05:11:40;;;;;;;1.50;0.60;;;11.60;80.90;;;;;;5115104;28;20634;-66
2023/01/05 05:14:08;;;;;;;2.00;0.70;;;11.60;80.70;;;;;;5115543;28;20430;-66
2023/01/05 05:16:36;;;;;;;1.70;0.70;;;11.70;80.90;;;;;;5115059;28;20434;-66
2023/01/05 05:19:03;;;;;;;1.50;0.57;;;11.70;80.90;;;;;;5115132;28;20200;-66
2023/01/05 05:21:30;;;;;;;2.13;0.70;;;11.70;80.90;;;;;;5114526;28;20433;-66
2023/01/05 05:23:57;;;;;;;1.47;0.60;;;11.70;81.00;;;;;;5115102;28;20193;-66
2023/01/05 05:26:25;;;;;;;1.50;0.60;;;11.70;81.20;;;;;;5114800;28;20448;-66
2023/01/05 05:28:52;;;;;;;1.60;0.57;;;11.70;81.20;;;;;;5115273;28;20192;-66
2023/01/05 05:31:19;;;;;;;1.77;0.77;;;11.70;81.30;;;;;;5114826;28;20488;-66
2023/01/05 05:33:48;;;;;;;1.53;0.57;;;11.70;81.50;;;;;;5114857;28;20647;-66
2023/01/05 05:36:16;;;;;;;1.57;0.70;;;11.70;81.90;;;;;;5114590;28;20567;-66
2023/01/05 05:38:44;;;;;;;1.77;0.60;;;11.60;82.20;;;;;;5115132;28;20507;-66
2023/01/05 05:41:11;;;;;;;3.65;0.70;;;11.60;82.60;;;;;;5112467;28;20441;-66
2023/01/05 05:43:38;;;;;;;3.20;0.70;;;11.60;82.60;;;;;;5114150;28;20208;-66
2023/01/05 05:46:06;;;;;;;2.28;0.90;;;11.60;82.80;;;;;;5114902;28;20586;-66
2023/01/05 05:48:33;;;;;;;2.47;0.75;;;11.60;83.20;;;;;;5114220;28;20196;-66
2023/01/05 05:51:01;;;;;;;1.73;0.70;;;11.60;83.20;;;;;;5114654;28;20211;-66
2023/01/05 05:53:28;;;;;;;1.80;0.70;;;11.60;83.30;;;;;;5114488;28;20279;-66
2023/01/05 05:55:55;;;;;;;1.60;0.63;;;11.50;83.80;;;;;;5114498;28;20830;-66
2023/01/05 05:58:23;;;;;;;1.50;0.60;;;11.50;83.80;;;;;;5114362;28;20883;-66
2023/01/05 06:00:50;;;;;;;1.70;0.70;;;11.50;84.20;;;;;;5114677;28;20445;-66
2023/01/05 06:03:17;;;;;;;2.07;0.60;;;11.50;84.30;;;;;;5113981;28;20988;-66
2023/01/05 06:05:45;;;;;;;1.50;0.60;;;11.50;84.30;;;;;;5114475;28;20496;-66
2023/01/05 06:08:13;;;;;;;1.70;0.60;;;11.50;84.60;;;;;;5114156;28;20484;-66
2023/01/05 06:10:41;;;;;;;3.22;1.58;;;11.50;84.80;;;;;;5114489;28;20540;-67
2023/01/05 06:13:08;;;;;;;3.00;0.60;;;11.40;85.10;;;;;;5113937;28;20262;-66
2023/01/05 06:15:35;;;;;;;1.70;0.60;;;11.40;85.40;;;;;;5114140;28;21227;-66
2023/01/05 06:18:03;;;;;;;2.73;0.70;;;11.40;85.30;;;;;;5113810;28;20846;-66
2023/01/05 06:20:30;;;;;;;1.50;0.50;;;11.30;85.60;;;;;;5113990;28;20969;-66
2023/01/05 06:22:57;;;;;;;1.60;0.65;;;11.30;86.00;;;;;;5113657;28;20273;-66
2023/01/05 06:25:26;;;;;;;1.57;0.67;;;11.30;86.40;;;;;;5113915;28;20253;-66
2023/01/05 06:27:53;;;;;;;4.03;0.90;;;11.30;86.60;;;;;;5113664;28;20544;-66
2023/01/05 06:30:20;;;;;;;1.50;0.50;;;11.30;86.70;;;;;;5113930;28;20426;-66
2023/01/05 06:32:47;;;;;;;1.52;0.70;;;11.30;87.00;;;;;;5113463;28;20192;-66
2023/01/05 06:35:14;;;;;;;1.50;0.60;;;11.30;86.90;;;;;;5113864;28;20220;-66
2023/01/05 06:37:41;;;;;;;1.50;0.60;;;11.30;87.10;;;;;;5113560;28;20188;-66
2023/01/05 06:40:10;;;;;;;1.88;0.60;;;11.40;87.10;;;;;;5113567;28;20226;-65
2023/01/05 06:42:39;;;;;;;1.60;0.80;;;11.40;86.90;;;;;;5113722;28;20627;-66
2023/01/05 06:45:08;;;;;;;1.92;0.85;;;11.40;87.60;;;;;;5113750;28;20193;-66
2023/01/05 06:47:35;;;;;;;2.33;0.60;;;11.40;87.70;;;;;;5113262;28;20268;-66
2023/01/05 06:50:02;;;;;;;1.87;0.70;;;11.40;88.50;;;;;;5113626;28;20435;-66
2023/01/05 06:52:35;;;;;;;1.80;0.70;;;11.40;89.20;;;;;;5113063;28;20475;-66
2023/01/05 06:55:03;;;;;;;1.50;0.65;;;11.40;89.00;;;;;;5112671;28;20434;-66
2023/01/05 06:57:30;;;;;;;1.55;0.60;;;11.30;89.60;;;;;;5113099;28;20195;-66
2023/01/05 06:59:58;;;;;;;1.50;0.60;;;11.30;89.50;;;;;;5113373;28;20200;-66
2023/01/05 07:02:25;;;;;;;1.95;0.63;;;11.30;90.20;;;;;;5112914;28;20498;-66
2023/01/05 07:04:52;;;;;;;1.92;0.80;;;11.20;90.60;;;;;;5113495;28;20191;-66
2023/01/05 07:07:20;;;;;;;1.48;0.50;;;11.20;90.60;;;;;;5112640;28;20184;-66
2023/01/05 07:09:48;;;;;;;1.50;0.60;;;11.20;90.70;;;;;;5113387;28;20639;-66
2023/01/05 07:12:15;;;;;;;2.10;0.60;;;11.20;90.90;;;;;;5112827;28;20185;-66
2023/01/05 07:14:42;;;;;;;1.60;0.80;;;11.10;91.00;;;;;;5113292;28;20434;-66
2023/01/05 07:17:12;;;;;;;1.60;0.60;;;11.10;91.30;;;;;;5112863;28;20282;-66
2023/01/05 07:19:39;;;;;;;1.98;0.70;;;11.20;91.20;;;;;;5113183;28;20188;-66
2023/01/05 07:22:06;;;;;;;1.50;0.50;;;11.20;91.30;;;;;;5112919;28;20180;-66
2023/01/05 07:24:33;;;;;;;1.55;0.70;;;11.20;91.20;;;;;;5113124;28;20192;-66
2023/01/05 07:27:01;;;;;;;1.50;0.60;;;11.20;91.30;;;;;;5112719;28;20184;-66
2023/01/05 07:29:28;;;;;;;1.60;0.50;;;11.20;91.40;;;;;;5113033;28;20438;-66
2023/01/05 07:31:55;;;;;;;1.60;0.52;;;11.20;91.40;;;;;;5112236;28;20184;-66
2023/01/05 07:34:24;;;;;;;1.50;0.60;;;11.30;91.30;;;;;;5112720;28;20199;-67
2023/01/05 07:36:51;;;;;;;1.50;0.60;;;11.30;91.70;;;;;;5112341;28;20990;-66
2023/01/05 07:39:18;;;;;;;1.50;0.60;;;11.40;91.20;;;;;;5112859;28;20835;-66
2023/01/05 07:41:47;;;;;;;1.80;1.00;;;11.40;91.10;;;;;;5112623;28;20233;-66
2023/01/05 07:44:14;;;;;;;1.50;0.60;;;11.40;90.90;;;;;;5112606;28;20534;-66
2023/01/05 07:46:41;;;;;;;1.50;0.55;;;11.50;90.70;;;;;;5112411;28;20249;-66
2023/01/05 07:49:08;;;;;;;1.50;0.60;;;11.50;90.70;;;;;;5112866;28;20216;-66
2023/01/05 07:51:37;;;;;;;1.65;0.73;;;11.50;90.60;;;;;;5108912;28;20409;-66
2023/01/05 07:54:07;;;;;;;2.17;0.60;;;11.60;90.60;;;;;;5111212;28;20338;-67
2023/01/05 07:56:34;;;;;;;1.70;0.70;;;11.60;90.40;;;;;;5110869;28;20195;-67
2023/01/05 07:59:01;;;;;;;1.50;0.60;;;11.60;90.30;;;;;;5110627;28;20438;-66
2023/01/05 08:01:29;;;;;;;1.63;0.67;;;11.70;90.30;;;;;;5110723;28;20573;-66
2023/01/05 08:03:56;;;;;;;1.67;0.60;;;11.80;90.10;;;;;;5110730;28;20831;-66
2023/01/05 08:06:24;;;;;;;1.50;0.63;;;11.80;90.00;;;;;;5111244;28;20441;-67
2023/01/05 08:08:52;;;;;;;1.60;0.70;;;11.90;89.80;;;;;;5114731;28;20430;-66
2023/01/05 08:11:20;;;;;;;1.50;0.60;;;11.80;89.50;;;;;;5114532;28;20249;-66
2023/01/05 08:14:01;;;;;;;1.50;0.60;;;11.90;89.60;;;;;;5114777;28;20445;-66
2023/01/05 08:16:29;;;;;;;1.70;0.70;;;11.90;89.60;;;;;;5114768;28;20481;-66
2023/01/05 08:18:57;;;;;;;2.30;0.60;;;11.80;89.50;;;;;;5114965;28;20432;-66
2023/01/05 08:21:25;;;;;;;1.50;0.50;;;11.80;89.60;;;;;;5114008;28;20429;-67
2023/01/05 08:23:56;;;;;;;2.20;0.60;;;11.90;89.40;;;;;;5112208;28;20478;-66
2023/01/05 08:26:24;;;;;;;1.50;0.60;;;11.90;89.10;;;;;;5113911;28;20537;-66
2023/01/05 08:28:52;;;;;;;1.50;0.60;;;11.90;89.40;;;;;;5114633;28;20916;-66
2023/01/05 08:31:21;;;;;;;1.50;0.60;;;11.90;89.20;;;;;;5115120;28;20445;-66
2023/01/05 08:33:49;;;;;;;1.63;0.60;;;11.90;89.00;;;;;;5114189;28;20478;-66
2023/01/05 08:36:18;;;;;;;1.50;0.50;;;11.90;88.60;;;;;;5114887;28;20911;-66
2023/01/05 08:38:47;;;;;;;1.53;0.80;;;11.90;88.60;;;;;;5114021;28;20517;-66
2023/01/05 08:41:21;;;;;;;1.80;0.67;;;12.00;88.70;;;;;;5114472;28;20434;-66
2023/01/05 08:43:53;;;;;;;1.70;0.60;;;12.00;88.60;;;;;;5114619;28;21023;-66
2023/01/05 08:46:21;;;;;;;1.63;0.60;;;12.00;89.60;;;;;;5110479;28;20223;-67
2023/01/05 08:48:49;;;;;;;1.60;0.60;;;12.00;90.00;;;;;;5110850;28;20434;-66
2023/01/05 08:51:16;;;;;;;1.60;0.70;;;12.10;90.20;;;;;;5114030;28;20460;-66
2023/01/05 08:53:46;;;;;;;1.80;0.77;;;12.10;90.20;;;;;;5112507;28;20446;-66
2023/01/05 08:56:13;;;;;;;2.90;0.80;;;12.10;90.20;;;;;;5113742;28;20528;-66
2023/01/05 08:58:43;;;;;;;1.90;0.60;;;12.00;90.10;;;;;;5114267;28;20936;-66
2023/01/05 09:01:12;;;;;;;1.57;0.70;;;12.00;90.20;;;;;;5113680;28;21038;-67
2023/01/05 09:03:40;;;;;;;1.47;0.60;;;12.00;90.30;;;;;;5110295;28;20890;-66
2023/01/05 09:06:10;;;;;;;1.70;0.70;;;12.00;90.30;;;;;;5111538;28;20861;-67
2023/01/05 09:08:38;;;;;;;1.50;0.60;;;12.00;90.40;;;;;;5113853;28;20548;-66
2023/01/05 09:11:07;;;;;;;1.97;0.60;;;12.10;90.50;;;;;;5113080;28;20436;-66
2023/01/05 09:13:34;;;;;;;1.60;0.60;;;12.10;90.20;;;;;;5113760;28;21189;-66
2023/01/05 09:16:07;;;;;;;2.13;0.70;;;12.10;90.00;;;;;;5112979;28;20920;-66
2023/01/05 09:18:35;;;;;;;1.80;0.60;;;12.20;89.90;;;;;;5112340;28;20438;-66
2023/01/05 09:21:02;;;;;;;1.50;0.50;;;12.20;89.20;;;;;;5113601;28;20835;-66
2023/01/05 09:23:29;;;;;;;2.00;1.00;;;12.20;88.70;;;;;;5112544;27;20554;-66
2023/01/05 09:25:55;;;;;;;2.27;0.87;;;12.30;88.30;;;;;;5112007;28;20442;-66
2023/01/05 09:28:22;;;;;;;1.73;0.93;;;12.30;87.60;;;;;;5113551;28;20505;-66
2023/01/05 09:30:49;;;;;;;1.57;0.63;;;12.30;86.70;;;;;;5114085;27;20469;-66
2023/01/05 09:33:18;;;;;;;1.50;0.60;;;12.30;86.80;;;;;;5105107;27;20804;-66
2023/01/05 09:35:55;;;;;;;2.00;0.70;;;12.30;86.40;;;;;;5107713;28;20873;-66
2023/01/05 09:38:22;;;;;;;1.70;0.60;;;12.30;86.20;;;;;;5113021;27;20519;-66
2023/01/05 09:40:52;;;;;;;1.73;0.70;;;12.40;86.10;;;;;;5116437;27;20441;-67
2023/01/05 09:43:23;;;;;;;1.60;0.60;;;12.40;85.40;;;;;;5111729;28;20478;-66
2023/01/05 09:45:51;;;;;;;1.60;0.80;;;12.40;84.90;;;;;;5110055;27;20446;-66
2023/01/05 09:48:21;;;;;;;1.50;0.60;;;12.40;84.30;;;;;;5113900;27;20442;-67
2023/01/05 09:50:51;;;;;;;1.60;0.80;;;12.40;84.50;;;;;;5112151;28;20512;-67
2023/01/05 09:53:25;;;;;;;1.90;0.70;;;12.40;83.70;;;;;;5112341;28;20449;-66
2023/01/05 09:55:53;;;;;;;1.60;0.77;;;12.40;83.10;;;;;;5111657;28;20994;-66
2023/01/05 09:58:24;;;;;;;1.60;0.60;;;12.40;83.00;;;;;;5112125;28;20438;-67
2023/01/05 10:01:04;;;;;;;1.50;0.60;;;12.40;83.10;;;;;;5112813;28;21067;-66
2023/01/05 10:03:38;;;;;;;1.60;0.60;;;12.40;83.30;;;;;;5112341;28;20473;-66
2023/01/05 10:06:11;;;;;;;2.30;0.97;;;12.50;83.40;;;;;;5112162;28;20447;-66
2023/01/05 10:08:42;;;;;;;2.20;0.70;;;12.50;83.10;;;;;;5111144;28;20440;-67
2023/01/05 10:14:04;;;;;;;1.60;0.60;;;12.50;82.90;;;;;;5112554;28;20952;-66
2023/01/05 10:16:32;;;;;;;1.60;0.73;;;12.60;83.00;;;;;;5112041;28;20431;-67
2023/01/05 10:19:02;;;;;;;1.50;0.60;;;12.60;83.00;;;;;;5112289;28;20519;-66
2023/01/05 10:21:41;;;;;;;1.43;0.50;;;12.60;83.10;;;;;;5107975;28;20429;-67
2023/01/05 10:24:23;;;;;;;1.70;0.80;;;12.70;83.50;;;;;;5112628;28;20577;-66
2023/01/05 10:26:56;;;;;;;1.70;0.70;;;12.70;83.50;;;;;;5108645;27;20442;-67
2023/01/05 10:29:32;;;;;;;1.60;0.60;;;12.80;83.30;;;;;;5110326;28;20448;-66
2023/01/05 10:32:10;;;;;;;1.60;0.70;;;12.70;82.80;;;;;;5111615;28;20473;-67
2023/01/05 10:34:57;;;;;;;1.60;0.73;;;12.80;83.20;;;;;;5111740;28;20433;-67
2023/01/05 10:37:49;;;;;;;1.50;0.60;;;12.80;83.50;;;;;;5111720;28;20437;-66
2023/01/05 10:40:28;;;;;;;1.50;0.60;;;12.80;83.30;;;;;;5109165;28;20470;-67
2023/01/05 10:43:13;;;;;;;1.60;0.90;;;12.80;83.40;;;;;;5112085;28;20445;-66
2023/01/05 10:45:41;;;;;;;3.97;2.23;;;12.90;83.60;;;;;;5107509;28;20823;-66
2023/01/05 10:48:14;;;;;;;1.60;0.60;;;13.00;83.50;;;;;;5112184;28;20438;-66
2023/01/05 10:50:45;;;;;;;1.50;0.53;;;13.10;83.30;;;;;;5111668;28;20442;-66
2023/01/05 10:53:14;;;;;;;1.70;0.67;;;13.10;83.00;;;;;;5107476;28;20554;-66
2023/01/05 10:55:51;;;;;;;2.00;1.00;;;13.20;81.80;;;;;;5111457;28;20477;-66
2023/01/05 10:58:26;;;;;;;3.63;0.70;;;13.40;82.70;;;;;;5110653;28;20451;-67
2023/01/05 11:00:57;;;;;;;1.80;0.80;;;13.70;81.40;;;;;;5105662;27;20433;-67
2023/01/05 11:03:30;;;;;;;1.93;0.80;;;13.90;80.30;;;;;;5110145;28;20434;-67
2023/01/05 11:05:59;;;;;;;1.60;0.70;;;14.00;79.20;;;;;;5110573;28;20514;-66
2023/01/05 11:08:29;;;;;;;1.50;0.60;;;14.10;78.10;;;;;;5111060;28;20444;-66
2023/01/05 11:10:57;;;;;;;1.83;0.67;;;14.00;76.80;;;;;;5109802;28;20549;-66
2023/01/05 11:13:31;;;;;;;2.23;0.70;;;13.90;75.50;;;;;;5110695;28;20438;-66
2023/01/05 11:16:05;;;;;;;1.80;0.60;;;13.80;75.90;;;;;;5110161;28;20434;-66
2023/01/05 11:18:36;;;;;;;1.70;0.60;;;13.70;75.90;;;;;;5110793;28;20792;-66
2023/01/05 11:21:14;;;;;;;1.77;0.60;;;13.50;76.90;;;;;;5110151;28;20438;-67
2023/01/05 11:23:43;;;;;;;1.60;0.60;;;13.50;78.10;;;;;;5106402;28;20482;-66
2023/01/05 11:26:38;;;;;;;1.77;0.70;;;13.50;78.90;;;;;;5110032;28;20499;-66
2023/01/05 11:29:16;;;;;;;1.63;0.70;;;13.40;80.80;;;;;;5108512;28;20547;-66
2023/01/05 11:31:48;;;;;;;1.70;0.70;;;13.40;82.40;;;;;;5110974;27;20444;-67
2023/01/05 11:34:28;;;;;;;1.60;0.60;;;13.30;83.30;;;;;;5110660;28;20448;-66
2023/01/05 11:36:58;;;;;;;1.80;0.70;;;13.30;84.10;;;;;;5106820;28;20868;-66
2023/01/05 11:39:29;;;;;;;1.60;0.60;;;13.30;86.10;;;;;;5109405;28;21018;-67
2023/01/05 11:42:16;;;;;;;1.73;0.73;;;13.20;86.70;;;;;;5110333;28;20501;-67
2023/01/05 11:44:46;;;;;;;2.43;0.90;;;13.20;87.40;;;;;;5108878;28;20976;-66
2023/01/05 11:47:22;;;;;;;1.70;0.70;;;13.20;88.00;;;;;;5109932;28;20434;-67
2023/01/05 11:49:57;;;;;;;2.13;1.00;;;13.30;88.70;;;;;;5109979;28;20456;-67
2023/01/05 11:52:34;;;;;;;3.10;1.17;;;13.30;89.00;;;;;;5110009;28;20511;-66
2023/01/05 11:55:30;;;;;;;1.80;0.70;;;13.30;89.40;;;;;;5110869;28;20494;-66
2023/01/05 11:58:22;;;;;;;2.27;0.80;;;13.30;89.90;;;;;;5110970;28;20437;-66
2023/01/05 12:01:13;;;;;;;1.70;0.70;;;13.30;89.80;;;;;;5110500;28;20437;-66
2023/01/05 12:04:03;;;;;;;1.70;0.70;;;13.20;90.10;;;;;;5110955;28;20434;-67
2023/01/05 12:06:50;;;;;;;2.43;0.80;;;13.20;90.50;;;;;;5107689;28;20466;-66
2023/01/05 12:09:26;;;;;;;3.13;0.87;;;13.10;90.50;;;;;;5106481;28;20438;-64
2023/01/05 12:12:04;;;;;;;2.87;0.87;;;13.10;90.60;;;;;;5110584;28;20434;-64
2023/01/05 12:14:47;;;;;;;2.63;0.90;;;13.10;90.80;;;;;;5110162;28;20491;-64
2023/01/05 12:17:16;;;;;;;1.93;0.90;;;13.00;90.70;;;;;;5110103;28;20469;-64
2023/01/05 12:20:03;;;;;;;1.60;0.70;;;12.90;90.70;;;;;;5110437;28;20624;-64
2023/01/05 12:22:58;;;;;;;1.80;0.60;;;12.90;90.90;;;;;;5106028;28;20519;-64
2023/01/05 12:25:34;;;;;;;1.63;0.70;;;12.80;90.80;;;;;;5101674;28;20477;-64
2023/01/05 12:28:23;;;;;;;1.70;0.77;;;12.80;90.70;;;;;;5110252;28;20441;-64
2023/01/05 12:30:59;;;;;;;2.57;1.20;;;12.70;90.60;;;;;;5110573;28;20441;-64
2023/01/05 12:34:02;;;;;;;1.73;0.80;;;12.70;90.60;;;;;;5106193;28;20438;-63
2023/01/05 12:36:42;;;;;;;1.70;0.60;;;12.70;90.50;;;;;;5106228;28;20473;-64
2023/01/05 12:39:37;;;;;;;1.50;0.67;;;12.60;90.30;;;;;;5109462;28;20444;-66
2023/01/05 12:42:26;;;;;;;2.43;0.63;;;12.50;90.20;;;;;;5110256;28;20430;-65
2023/01/05 12:45:06;;;;;;;1.70;0.73;;;12.50;90.40;;;;;;5109615;28;20481;-66
2023/01/05 12:47:48;;;;;;;1.60;0.70;;;12.40;90.40;;;;;;5108520;28;20445;-65
2023/01/05 12:50:25;;;;;;;2.47;0.80;;;12.50;90.40;;;;;;5109533;28;20504;-65
2023/01/05 12:52:58;;;;;;;1.90;0.80;;;12.40;90.50;;;;;;5111123;28;20486;-65
2023/01/05 12:55:29;;;;;;;1.70;0.70;;;12.40;90.60;;;;;;5110625;28;20433;-66
2023/01/05 12:58:05;;;;;;;1.70;0.80;;;12.40;90.70;;;;;;5114348;28;20896;-65
2023/01/05 13:00:40;;;;;;;1.77;0.80;;;12.40;90.40;;;;;;5113645;28;20458;-65
2023/01/05 13:03:20;;;;;;;2.80;0.90;;;12.40;90.40;;;;;;5114378;28;20486;-65
2023/01/05 13:05:57;;;;;;;1.73;0.80;;;12.50;90.20;;;;;;5113676;28;20483;-66
2023/01/05 13:08:32;;;;;;;2.57;0.90;;;12.50;90.00;;;;;;5114018;28;20438;-66
2023/01/05 13:11:04;;;;;;;1.50;0.60;;;12.50;89.50;;;;;;5110630;28;20442;-65
2023/01/05 13:13:38;;;;;;;1.80;0.80;;;12.50;89.10;;;;;;5113759;28;21001;-65
2023/01/05 13:16:13;;;;;;;1.90;0.80;;;12.60;88.90;;;;;;5110019;28;20435;-66
2023/01/05 13:18:45;;;;;;;2.03;0.70;;;12.60;88.60;;;;;;5113442;28;20433;-65
2023/01/05 13:21:15;;;;;;;1.80;0.77;;;12.50;87.80;;;;;;5113677;28;20836;-66
2023/01/05 13:23:47;;;;;;;2.07;1.17;;;12.50;87.70;;;;;;5113840;28;20492;-66
2023/01/05 13:26:16;;;;;;;1.57;0.67;;;12.50;87.00;;;;;;5110794;27;20474;-66
2023/01/05 13:28:48;;;;;;;2.20;0.80;;;12.50;86.50;;;;;;5107283;28;20434;-66
2023/01/05 13:31:41;;;;;;;2.17;0.77;;;12.50;86.80;;;;;;5112744;28;20527;-66
2023/01/05 13:34:27;;;;;;;1.70;0.80;;;12.50;86.70;;;;;;5110674;28;20449;-65
2023/01/05 13:37:26;;;;;;;3.50;0.93;;;12.50;86.00;;;;;;5111138;28;20474;-65
2023/01/05 13:40:23;;;;;;;1.67;0.67;;;12.40;86.40;;;;;;5112690;28;21680;-65
2023/01/05 13:43:13;;;;;;;2.10;0.90;;;12.40;86.20;;;;;;5112183;28;20438;-66